Time;durP1;ratioP1;P1;durP2;ratioP2;P2;SDS_P1;SDS_P2;PMS_P1;PMS_P2;Temp;Humidity;BMP_temperature;BMP_pressure;BME280_temperature;BME280_humidity;BME280_pressure;Samples;Min_cycle;Max_cycle;Signal;HPM_P1;HPM_P2
2022/08/30 00:02:23;;;;;;;6.63;5.87;;;;;;;;;;10408328;28;20124;-70
2022/08/30 00:07:24;;;;;;;8.10;6.30;;;;;;;;;;10410758;28;20358;-69
2022/08/30 00:12:24;;;;;;;7.28;5.60;;;;;;;;;;10401403;28;20053;-71
2022/08/30 00:17:25;;;;;;;8.35;6.00;;;;;;;;;;10408813;28;20032;-70
2022/08/30 00:22:25;;;;;;;7.53;5.38;;;;;;;;;;10407254;28;20040;-70
2022/08/30 00:27:27;;;;;;;8.40;5.25;;;;;;;;;;10408926;28;20045;-72
2022/08/30 00:32:27;;;;;;;8.52;5.07;;;;;;;;;;10402471;28;20052;-70
2022/08/30 00:37:27;;;;;;;6.50;5.33;;;;;;;;;;10415844;28;20040;-70
2022/08/30 00:42:28;;;;;;;6.53;4.87;;;;;;;;;;10411897;28;20284;-69
2022/08/30 00:47:28;;;;;;;8.90;4.97;;;;;;;;;;10408334;28;20288;-73
2022/08/30 00:52:28;;;;;;;8.80;4.63;;;;;;;;;;10410217;28;20049;-72
2022/08/30 00:57:29;;;;;;;8.33;4.83;;;;;;;;;;10400587;28;20046;-71
2022/08/30 01:02:32;;;;;;;6.68;5.18;;;;;;;;;;10411890;28;20319;-71
2022/08/30 01:07:33;;;;;;;6.85;5.07;;;;;;;;;;10400918;28;20210;-71
2022/08/30 01:12:33;;;;;;;7.85;5.20;;;;;;;;;;10407488;28;20468;-71
2022/08/30 01:17:34;;;;;;;6.13;5.47;;;;;;;;;;10417006;28;20128;-70
2022/08/30 01:22:37;;;;;;;5.80;4.72;;;;;;;;;;10412220;28;20356;-70
2022/08/30 01:27:40;;;;;;;6.88;5.50;;;;;;;;;;10407273;28;20091;-70
2022/08/30 01:32:42;;;;;;;5.88;4.90;;;;;;;;;;10402835;28;20428;-71
2022/08/30 01:37:43;;;;;;;6.95;5.20;;;;;;;;;;10413146;28;20362;-70
2022/08/30 01:42:44;;;;;;;5.72;5.13;;;;;;;;;;10398020;28;20037;-70
2022/08/30 01:47:44;;;;;;;6.32;5.18;;;;;;;;;;10409043;28;20423;-71
2022/08/30 01:52:46;;;;;;;11.32;6.78;;;;;;;;;;10400846;28;20037;-71
2022/08/30 01:57:46;;;;;;;6.05;5.35;;;;;;;;;;10413329;28;20030;-71
2022/08/30 02:02:47;;;;;;;7.20;5.40;;;;;;;;;;10410467;28;20051;-71
2022/08/30 02:07:48;;;;;;;11.88;7.03;;;;;;;;;;10411933;28;20495;-70
2022/08/30 02:12:48;;;;;;;9.73;6.50;;;;;;;;;;10413440;28;20061;-70
2022/08/30 02:17:48;;;;;;;7.65;5.72;;;;;;;;;;10407207;28;20747;-69
2022/08/30 02:22:49;;;;;;;6.50;5.40;;;;;;;;;;10420750;28;20037;-69
2022/08/30 02:27:50;;;;;;;7.72;5.97;;;;;;;;;;10402109;28;20812;-70
2022/08/30 02:32:50;;;;;;;9.23;6.27;;;;;;;;;;10409441;28;20029;-71
2022/08/30 02:37:51;;;;;;;8.83;6.07;;;;;;;;;;10385318;28;20289;-71
2022/08/30 02:42:51;;;;;;;7.90;5.95;;;;;;;;;;10414544;28;20033;-70
2022/08/30 02:47:52;;;;;;;6.97;5.90;;;;;;;;;;10416189;28;20111;-69
2022/08/30 02:52:52;;;;;;;10.73;6.20;;;;;;;;;;10409075;28;20045;-71
2022/08/30 02:57:53;;;;;;;8.00;6.18;;;;;;;;;;10424358;28;20050;-73
2022/08/30 03:02:53;;;;;;;10.57;6.40;;;;;;;;;;10409650;28;20041;-71
2022/08/30 03:07:53;;;;;;;7.53;6.05;;;;;;;;;;10421249;28;20888;-71
2022/08/30 03:12:54;;;;;;;8.53;6.37;;;;;;;;;;10404321;28;20477;-69
2022/08/30 03:17:55;;;;;;;8.32;5.80;;;;;;;;;;10406178;28;20638;-71
2022/08/30 03:22:55;;;;;;;7.68;6.25;;;;;;;;;;10410149;28;20152;-70
2022/08/30 03:27:56;;;;;;;8.20;5.60;;;;;;;;;;10419818;28;20064;-72
2022/08/30 03:32:56;;;;;;;7.33;6.20;;;;;;;;;;10422078;28;20530;-71
2022/08/30 03:37:57;;;;;;;9.20;6.38;;;;;;;;;;10413806;28;20482;-71
2022/08/30 03:42:58;;;;;;;8.27;6.32;;;;;;;;;;10414084;28;20702;-70
2022/08/30 03:47:58;;;;;;;9.73;6.17;;;;;;;;;;10408075;28;20051;-71
2022/08/30 03:53:00;;;;;;;8.70;6.22;;;;;;;;;;10416696;28;20359;-72
2022/08/30 03:58:00;;;;;;;10.15;6.35;;;;;;;;;;10400230;28;20045;-71
2022/08/30 04:03:01;;;;;;;7.53;6.25;;;;;;;;;;10417997;28;20653;-70
2022/08/30 04:08:01;;;;;;;10.47;6.33;;;;;;;;;;10411039;28;20043;-70
2022/08/30 04:13:01;;;;;;;9.82;6.78;;;;;;;;;;10421622;28;20111;-70
2022/08/30 04:18:02;;;;;;;10.13;6.70;;;;;;;;;;10420384;28;20033;-70
2022/08/30 04:23:05;;;;;;;11.20;6.70;;;;;;;;;;10411272;28;20770;-72
2022/08/30 04:28:05;;;;;;;11.05;6.53;;;;;;;;;;10409942;28;20065;-71
2022/08/30 04:33:06;;;;;;;10.70;6.05;;;;;;;;;;10404020;28;20124;-70
2022/08/30 04:38:06;;;;;;;6.95;5.30;;;;;;;;;;10399188;28;20044;-70
2022/08/30 04:43:07;;;;;;;9.65;6.22;;;;;;;;;;10402516;28;20026;-70
2022/08/30 04:48:07;;;;;;;8.20;6.13;;;;;;;;;;10414674;28;20049;-70
2022/08/30 04:53:08;;;;;;;8.55;6.85;;;;;;;;;;10416952;28;20383;-71
2022/08/30 04:58:09;;;;;;;11.23;6.72;;;;;;;;;;10421686;28;20112;-73
2022/08/30 05:03:09;;;;;;;9.50;6.22;;;;;;;;;;10422077;28;20515;-69
2022/08/30 05:08:11;;;;;;;7.57;6.10;;;;;;;;;;10406840;28;20053;-70
2022/08/30 05:13:11;;;;;;;9.75;6.30;;;;;;;;;;10418542;28;20279;-69
2022/08/30 05:18:12;;;;;;;12.70;6.85;;;;;;;;;;10399967;28;20044;-72
2022/08/30 05:23:13;;;;;;;9.40;7.40;;;;;;;;;;10419701;28;20052;-73
2022/08/30 05:28:13;;;;;;;9.85;7.43;;;;;;;;;;10393292;28;20115;-72
2022/08/30 05:33:14;;;;;;;13.80;7.45;;;;;;;;;;10413282;28;20116;-71
2022/08/30 05:38:14;;;;;;;8.90;6.77;;;;;;;;;;10417009;28;20128;-71
2022/08/30 05:43:14;;;;;;;9.68;6.70;;;;;;;;;;10410250;28;20287;-70
2022/08/30 05:48:15;;;;;;;10.03;6.87;;;;;;;;;;10408756;28;20652;-71
2022/08/30 05:53:15;;;;;;;8.53;6.10;;;;;;;;;;10404396;28;20366;-74
2022/08/30 05:58:15;;;;;;;8.40;5.95;;;;;;;;;;10406498;28;20116;-72
2022/08/30 06:03:16;;;;;;;7.53;5.70;;;;;;;;;;10402278;28;20074;-73
2022/08/30 06:08:16;;;;;;;9.80;5.75;;;;;;;;;;10404218;28;20033;-71
2022/08/30 06:13:17;;;;;;;6.68;5.28;;;;;;;;;;10400954;28;20508;-72
2022/08/30 06:18:17;;;;;;;8.30;6.28;;;;;;;;;;10421188;28;20040;-71
2022/08/30 06:23:18;;;;;;;8.75;5.55;;;;;;;;;;10431875;28;20128;-71
2022/08/30 06:28:18;;;;;;;8.33;6.27;;;;;;;;;;10415697;28;20050;-72
2022/08/30 06:33:19;;;;;;;10.90;7.33;;;;;;;;;;10419880;28;20119;-75
2022/08/30 06:38:19;;;;;;;9.63;5.75;;;;;;;;;;10400371;28;20103;-72
2022/08/30 06:43:19;;;;;;;8.83;5.50;;;;;;;;;;10421198;28;20044;-70
2022/08/30 06:48:20;;;;;;;8.07;5.27;;;;;;;;;;10413654;28;20431;-72
2022/08/30 06:53:20;;;;;;;8.30;5.45;;;;;;;;;;10421032;28;20303;-73
2022/08/30 06:58:21;;;;;;;9.00;5.53;;;;;;;;;;10409289;28;20461;-71
2022/08/30 07:03:21;;;;;;;8.52;6.07;;;;;;;;;;10400559;28;20036;-71
2022/08/30 07:08:23;;;;;;;6.75;5.32;;;;;;;;;;10419780;28;20071;-72
2022/08/30 07:13:23;;;;;;;10.68;7.55;;;;;;;;;;10419936;28;20416;-70
2022/08/30 07:23:44;;;;;;;7.50;5.55;;;;;;;;;;10416542;28;20132;-74
2022/08/30 07:28:45;;;;;;;7.32;5.45;;;;;;;;;;10412014;28;20437;-70
2022/08/30 07:33:46;;;;;;;7.18;6.05;;;;;;;;;;10411947;28;20042;-69
2022/08/30 07:38:47;;;;;;;9.60;5.85;;;;;;;;;;10416064;28;20037;-70
2022/08/30 07:43:47;;;;;;;8.95;6.15;;;;;;;;;;10397384;28;20401;-72
2022/08/30 07:48:47;;;;;;;8.82;5.65;;;;;;;;;;10419242;28;20049;-71
2022/08/30 07:53:48;;;;;;;8.73;6.07;;;;;;;;;;10426916;28;20029;-71
2022/08/30 07:58:48;;;;;;;8.80;6.50;;;;;;;;;;10416889;28;20327;-70
2022/08/30 08:03:49;;;;;;;8.57;6.03;;;;;;;;;;10417640;28;20310;-70
2022/08/30 08:08:50;;;;;;;9.32;5.95;;;;;;;;;;10410009;28;20033;-72
2022/08/30 08:13:51;;;;;;;6.85;5.15;;;;;;;;;;10411714;28;20036;-71
2022/08/30 08:18:53;;;;;;;6.88;5.15;;;;;;;;;;10412882;28;20118;-73
2022/08/30 08:23:54;;;;;;;6.30;5.03;;;;;;;;;;10410169;28;20046;-71
2022/08/30 08:28:57;;;;;;;13.88;10.60;;;;;;;;;;10395770;28;20058;-72
2022/08/30 08:34:01;;;;;;;7.13;5.18;;;;;;;;;;10419111;28;20037;-70
2022/08/30 08:39:02;;;;;;;8.23;5.95;;;;;;;;;;10407158;28;20045;-71
2022/08/30 08:44:07;;;;;;;8.43;5.70;;;;;;;;;;10409110;28;20052;-70
2022/08/30 08:49:09;;;;;;;5.75;4.82;;;;;;;;;;10410924;28;20515;-72
2022/08/30 08:54:20;;;;;;;7.67;5.17;;;;;;;;;;10402606;28;20476;-74
2022/08/30 08:59:22;;;;;;;7.82;5.70;;;;;;;;;;10411501;28;20030;-73
2022/08/30 09:04:29;;;;;;;6.53;5.32;;;;;;;;;;10415379;28;20113;-75
2022/08/30 09:09:36;;;;;;;6.60;5.00;;;;;;;;;;10405368;28;20045;-71
2022/08/30 09:14:39;;;;;;;6.60;4.90;;;;;;;;;;10394815;28;20029;-69
2022/08/30 09:19:51;;;;;;;7.35;5.13;;;;;;;;;;10416310;28;20040;-68
2022/08/30 09:24:59;;;;;;;8.45;5.13;;;;;;;;;;10400649;28;20503;-69
2022/08/30 09:30:01;;;;;;;5.93;4.32;;;;;;;;;;10411526;28;20048;-71
2022/08/30 09:35:02;;;;;;;;;;;;;;;;;;10412037;28;20037;-71
2022/08/30 09:40:08;;;;;;;7.72;4.32;;;;;;;;;;10414004;28;19913;-69
2022/08/30 09:45:27;;;;;;;7.95;4.50;;;;;;;;;;10404420;28;20116;-68
2022/08/30 09:50:31;;;;;;;5.20;4.32;;;;;;;;;;10423364;28;20048;-70
2022/08/30 09:55:44;;;;;;;5.20;4.28;;;;;;;;;;10407455;28;20097;-68
2022/08/30 10:00:54;;;;;;;5.93;4.35;;;;;;;;;;10413375;28;20088;-69
2022/08/30 10:05:55;;;;;;;5.25;4.22;;;;;;;;;;10415198;28;20504;-68
2022/08/30 10:11:00;;;;;;;6.40;3.73;;;;;;;;;;10422072;28;20025;-69
2022/08/30 10:16:14;;;;;;;6.30;4.03;;;;;;;;;;10422872;28;20194;-68
2022/08/30 10:21:33;;;;;;;6.32;3.53;;;;;;;;;;10410158;28;20046;-68
2022/08/30 10:26:37;;;;;;;7.30;3.85;;;;;;;;;;10416603;28;20041;-70
2022/08/30 10:31:40;;;;;;;28.00;23.02;;;;;;;;;;10406317;28;20045;-68
2022/08/30 10:36:48;;;;;;;6.95;3.63;;;;;;;;;;10420124;28;20103;-68
2022/08/30 10:41:49;;;;;;;5.38;3.58;;;;;;;;;;10405229;28;20038;-69
2022/08/30 10:46:53;;;;;;;4.85;3.33;;;;;;;;;;10425692;28;20064;-71
2022/08/30 10:51:57;;;;;;;7.18;4.30;;;;;;;;;;10417813;28;20025;-69
2022/08/30 10:56:58;;;;;;;5.93;3.28;;;;;;;;;;10414574;28;20034;-68
2022/08/30 11:02:08;;;;;;;4.82;3.10;;;;;;;;;;10428557;28;20048;-70
2022/08/30 11:07:20;;;;;;;5.53;3.00;;;;;;;;;;10411172;28;20034;-70
2022/08/30 11:12:21;;;;;;;5.22;3.15;;;;;;;;;;10404236;28;20076;-70
2022/08/30 11:17:27;;;;;;;4.90;2.80;;;;;;;;;;10408350;28;20541;-70
2022/08/30 11:22:32;;;;;;;2.92;2.50;;;;;;;;;;10423383;28;20288;-70
2022/08/30 11:27:40;;;;;;;3.75;2.95;;;;;;;;;;10404016;28;20503;-69
2022/08/30 11:33:01;;;;;;;3.50;2.80;;;;;;;;;;10419373;28;20041;-70
2022/08/30 11:38:10;;;;;;;5.88;2.95;;;;;;;;;;10405525;28;20032;-69
2022/08/30 11:43:29;;;;;;;3.08;2.75;;;;;;;;;;10413308;28;20107;-71
2022/08/30 11:48:50;;;;;;;3.63;2.67;;;;;;;;;;10406686;28;20519;-71
2022/08/30 11:53:57;;;;;;;3.28;2.70;;;;;;;;;;10414640;28;20033;-70
2022/08/30 11:59:03;;;;;;;4.28;3.00;;;;;;;;;;10402084;28;20033;-69
2022/08/30 12:04:15;;;;;;;3.58;2.75;;;;;;;;;;10406736;28;20041;-71
2022/08/30 12:09:16;;;;;;;;;;;;;;;;;;10408623;28;20108;-70
2022/08/30 12:14:34;;;;;;;2.80;2.60;;;;;;;;;;10421295;28;19928;-72
2022/08/30 12:19:35;;;;;;;5.05;2.90;;;;;;;;;;10424216;28;20044;-70
2022/08/30 12:24:39;;;;;;;4.50;2.87;;;;;;;;;;10416084;28;21095;-70
2022/08/30 12:29:48;;;;;;;3.60;2.83;;;;;;;;;;10415431;28;20764;-68
2022/08/30 12:34:53;;;;;;;3.70;2.80;;;;;;;;;;10409678;28;20033;-69
2022/08/30 12:40:05;;;;;;;3.17;2.65;;;;;;;;;;10413852;28;20037;-70
2022/08/30 12:45:10;;;;;;;4.65;2.63;;;;;;;;;;10405565;28;20045;-70
2022/08/30 12:50:22;;;;;;;4.80;3.03;;;;;;;;;;10412819;28;20118;-70
2022/08/30 12:55:25;;;;;;;4.43;2.67;;;;;;;;;;10409405;28;20049;-68
2022/08/30 13:00:35;;;;;;;4.95;3.30;;;;;;;;;;10417434;28;20071;-69
2022/08/30 13:05:38;;;;;;;4.97;3.30;;;;;;;;;;10411978;28;20033;-70
2022/08/30 13:10:49;;;;;;;4.00;3.63;;;;;;;;;;10406671;28;20045;-69
2022/08/30 13:15:50;;;;;;;3.90;3.40;;;;;;;;;;10412270;28;20054;-68
2022/08/30 13:21:07;;;;;;;3.90;3.45;;;;;;;;;;10403436;28;20124;-70
2022/08/30 13:26:08;;;;;;;5.65;3.20;;;;;;;;;;10414971;28;20026;-70
2022/08/30 13:31:08;;;;;;;4.40;3.57;;;;;;;;;;10394042;28;20037;-72
2022/08/30 13:36:09;;;;;;;4.13;3.00;;;;;;;;;;10408699;28;20037;-70
2022/08/30 13:41:09;;;;;;;4.53;3.40;;;;;;;;;;10413556;28;20398;-70
2022/08/30 13:46:11;;;;;;;3.77;3.47;;;;;;;;;;10414936;28;20047;-71
2022/08/30 13:51:11;;;;;;;4.10;3.33;;;;;;;;;;10409678;28;20041;-71
2022/08/30 13:56:11;;;;;;;3.87;2.90;;;;;;;;;;10412549;28;20044;-71
2022/08/30 14:01:12;;;;;;;3.87;3.10;;;;;;;;;;10416325;28;20045;-69
2022/08/30 14:06:12;;;;;;;4.60;3.40;;;;;;;;;;10406172;28;20042;-70
2022/08/30 14:11:15;;;;;;;3.60;2.87;;;;;;;;;;10414575;28;20041;-71
2022/08/30 14:16:15;;;;;;;3.70;3.30;;;;;;;;;;10403083;28;20067;-69
2022/08/30 14:21:16;;;;;;;4.17;3.30;;;;;;;;;;10417506;28;20595;-71
2022/08/30 14:26:18;;;;;;;4.03;2.97;;;;;;;;;;10421517;28;21133;-70
2022/08/30 14:31:19;;;;;;;3.53;2.90;;;;;;;;;;10411106;28;20511;-68
2022/08/30 14:36:19;;;;;;;3.63;2.90;;;;;;;;;;10409861;28;20154;-69
2022/08/30 14:41:19;;;;;;;4.23;2.87;;;;;;;;;;10403195;28;20300;-69
2022/08/30 14:46:23;;;;;;;3.73;3.00;;;;;;;;;;10408656;28;20042;-69
2022/08/30 14:51:23;;;;;;;3.47;3.00;;;;;;;;;;10403968;28;20034;-71
2022/08/30 14:56:24;;;;;;;4.97;3.80;;;;;;;;;;10415851;28;20041;-68
2022/08/30 15:01:25;;;;;;;3.80;3.30;;;;;;;;;;10404392;28;20040;-69
2022/08/30 15:06:26;;;;;;;4.57;2.95;;;;;;;;;;10416032;28;20140;-69
2022/08/30 15:11:26;;;;;;;4.13;3.17;;;;;;;;;;10425201;28;20041;-69
2022/08/30 15:16:29;;;;;;;7.10;3.13;;;;;;;;;;10421518;28;20049;-70
2022/08/30 15:21:34;;;;;;;4.65;3.30;;;;;;;;;;10417167;28;20029;-69
2022/08/30 15:26:35;;;;;;;3.17;2.80;;;;;;;;;;10408213;28;20052;-70
2022/08/30 15:31:35;;;;;;;6.13;3.07;;;;;;;;;;10414448;28;20084;-69
2022/08/30 15:36:36;;;;;;;3.53;2.90;;;;;;;;;;10405738;28;20791;-68
2022/08/30 15:41:36;;;;;;;4.10;2.97;;;;;;;;;;10412001;28;20060;-68
2022/08/30 15:46:38;;;;;;;3.17;2.87;;;;;;;;;;10402852;28;20065;-69
2022/08/30 15:51:39;;;;;;;4.60;3.15;;;;;;;;;;10416968;28;21008;-68
2022/08/30 15:56:40;;;;;;;3.30;3.00;;;;;;;;;;10427882;28;20132;-69
2022/08/30 16:01:41;;;;;;;4.53;3.33;;;;;;;;;;10416266;28;20029;-69
2022/08/30 16:06:41;;;;;;;3.67;2.93;;;;;;;;;;10412560;28;20049;-69
2022/08/30 16:11:42;;;;;;;4.23;3.57;;;;;;;;;;10411796;28;20770;-69
2022/08/30 16:16:42;;;;;;;4.43;3.17;;;;;;;;;;10413149;28;20060;-69
2022/08/30 16:21:43;;;;;;;4.20;3.20;;;;;;;;;;10402291;28;20826;-69
2022/08/30 16:26:43;;;;;;;5.37;3.63;;;;;;;;;;10407257;28;20545;-69
2022/08/30 16:31:44;;;;;;;3.78;3.22;;;;;;;;;;10397765;28;20037;-70
2022/08/30 16:36:44;;;;;;;3.03;2.83;;;;;;;;;;10413984;28;20042;-70
2022/08/30 16:41:45;;;;;;;4.23;3.67;;;;;;;;;;10419109;28;20323;-73
2022/08/30 16:46:47;;;;;;;6.00;3.88;;;;;;;;;;10408463;28;20037;-71
2022/08/30 16:51:48;;;;;;;6.13;5.10;;;;;;;;;;10412088;28;20041;-70
2022/08/30 16:56:48;;;;;;;3.30;3.00;;;;;;;;;;10409304;28;20033;-69
2022/08/30 17:01:48;;;;;;;4.23;3.10;;;;;;;;;;10412953;28;20092;-70
2022/08/30 17:06:49;;;;;;;3.72;3.20;;;;;;;;;;10403616;28;20040;-70
2022/08/30 17:11:51;;;;;;;4.50;3.50;;;;;;;;;;10396506;28;20045;-69
2022/08/30 17:16:51;;;;;;;;;;;;;;;;;;10403230;28;20033;-69
2022/08/30 17:21:52;;;;;;;5.40;3.60;;;;;;;;;;10412124;28;20237;-68
2022/08/30 17:26:53;;;;;;;7.53;4.13;;;;;;;;;;10407862;28;20065;-73
2022/08/30 17:31:54;;;;;;;5.63;3.73;;;;;;;;;;10412202;28;20086;-73
2022/08/30 17:36:57;;;;;;;3.97;3.35;;;;;;;;;;10411054;28;21207;-73
2022/08/30 17:41:57;;;;;;;4.20;3.80;;;;;;;;;;10410392;28;20052;-71
2022/08/30 17:46:58;;;;;;;4.18;3.30;;;;;;;;;;10387535;28;20578;-72
2022/08/30 17:51:59;;;;;;;4.22;3.47;;;;;;;;;;10404214;28;20121;-72
2022/08/30 17:56:59;;;;;;;4.13;3.30;;;;;;;;;;10401791;28;20507;-72
2022/08/30 18:02:01;;;;;;;4.60;3.50;;;;;;;;;;10390765;28;20034;-72
2022/08/30 18:07:01;;;;;;;5.35;3.85;;;;;;;;;;10410854;28;20044;-72
2022/08/30 18:12:02;;;;;;;5.15;3.97;;;;;;;;;;10407377;28;20046;-71
2022/08/30 18:17:03;;;;;;;4.95;3.75;;;;;;;;;;10412062;28;20088;-72
2022/08/30 18:22:03;;;;;;;4.43;3.50;;;;;;;;;;10410662;28;20223;-72
2022/08/30 18:27:04;;;;;;;4.63;3.53;;;;;;;;;;10415487;28;20284;-72
2022/08/30 18:32:05;;;;;;;5.53;3.42;;;;;;;;;;10409899;28;20147;-72
2022/08/30 18:37:05;;;;;;;3.97;3.20;;;;;;;;;;10409921;28;20052;-73
2022/08/30 18:42:06;;;;;;;4.93;3.93;;;;;;;;;;10416177;28;20397;-71
2022/08/30 18:47:06;;;;;;;5.43;3.50;;;;;;;;;;10408750;28;20407;-72
2022/08/30 18:52:08;;;;;;;3.57;3.27;;;;;;;;;;10414058;28;20041;-72
2022/08/30 18:57:09;;;;;;;4.10;3.38;;;;;;;;;;10418729;28;20291;-72
2022/08/30 19:02:11;;;;;;;3.40;3.10;;;;;;;;;;10412793;28;20799;-71
2022/08/30 19:07:12;;;;;;;3.67;3.10;;;;;;;;;;10410220;28;20040;-72
2022/08/30 19:12:12;;;;;;;3.40;2.95;;;;;;;;;;10412889;28;20037;-73
2022/08/30 19:17:13;;;;;;;3.43;3.00;;;;;;;;;;10409190;28;20118;-72
2022/08/30 19:22:13;;;;;;;4.57;3.20;;;;;;;;;;10414787;28;20315;-75
2022/08/30 19:27:14;;;;;;;4.73;3.00;;;;;;;;;;10420835;28;20315;-73
2022/08/30 19:32:15;;;;;;;4.30;3.20;;;;;;;;;;10419354;28;20291;-75
2022/08/30 19:37:16;;;;;;;4.57;3.28;;;;;;;;;;10421316;28;20032;-73
2022/08/30 19:42:17;;;;;;;6.28;3.65;;;;;;;;;;10418507;28;21030;-72
2022/08/30 19:47:17;;;;;;;4.78;3.63;;;;;;;;;;10413968;28;20045;-73
2022/08/30 19:52:18;;;;;;;3.70;3.30;;;;;;;;;;10413481;28;20470;-73
2022/08/30 19:57:18;;;;;;;4.05;2.95;;;;;;;;;;10408482;28;20063;-72
2022/08/30 20:02:18;;;;;;;3.87;3.27;;;;;;;;;;10407043;28;20041;-72
2022/08/30 20:07:20;;;;;;;4.20;3.50;;;;;;;;;;10407687;28;20300;-73
2022/08/30 20:12:20;;;;;;;4.28;3.30;;;;;;;;;;10406912;28;20050;-74
2022/08/30 20:17:21;;;;;;;5.47;3.80;;;;;;;;;;10417351;28;20048;-73
2022/08/30 20:22:21;;;;;;;4.68;3.17;;;;;;;;;;10420050;28;20094;-71
2022/08/30 20:27:22;;;;;;;4.40;3.57;;;;;;;;;;10418267;28;20049;-73
2022/08/30 20:32:23;;;;;;;4.93;3.38;;;;;;;;;;10409540;28;20288;-73
2022/08/30 20:37:24;;;;;;;4.35;3.45;;;;;;;;;;10406916;28;20397;-72
2022/08/30 20:42:25;;;;;;;4.88;3.60;;;;;;;;;;10414895;28;20057;-73
2022/08/30 20:47:25;;;;;;;6.43;3.47;;;;;;;;;;10418438;28;20037;-73
2022/08/30 20:52:26;;;;;;;5.85;3.50;;;;;;;;;;10451988;28;20029;-73
2022/08/30 20:57:27;;;;;;;5.60;3.50;;;;;;;;;;10464707;28;20076;-74
2022/08/30 21:02:27;;;;;;;5.50;3.30;;;;;;;;;;10464499;28;20044;-73
2022/08/30 21:07:28;;;;;;;4.10;3.47;;;;;;;;;;10448561;28;20088;-73
2022/08/30 21:12:28;;;;;;;4.18;3.58;;;;;;;;;;10423895;28;20052;-72
2022/08/30 21:17:30;;;;;;;3.90;3.50;;;;;;;;;;10409832;28;20044;-72
2022/08/30 21:22:30;;;;;;;4.97;4.13;;;;;;;;;;10411666;28;20298;-73
2022/08/30 21:27:31;;;;;;;4.50;4.07;;;;;;;;;;10419711;28;20590;-74
2022/08/30 21:32:31;;;;;;;5.78;4.10;;;;;;;;;;10420566;28;20375;-73
2022/08/30 21:37:33;;;;;;;6.57;4.03;;;;;;;;;;10407688;28;20053;-73
2022/08/30 21:42:35;;;;;;;4.13;3.80;;;;;;;;;;10398707;28;20049;-73
2022/08/30 21:47:35;;;;;;;5.00;4.07;;;;;;;;;;10420477;28;20320;-72
2022/08/30 21:52:36;;;;;;;5.20;3.92;;;;;;;;;;10419481;28;20539;-73
2022/08/30 21:57:36;;;;;;;6.43;4.17;;;;;;;;;;10410998;28;20110;-72
2022/08/30 22:02:36;;;;;;;6.13;4.57;;;;;;;;;;10410812;28;20342;-72
2022/08/30 22:07:37;;;;;;;6.30;4.57;;;;;;;;;;10394914;28;20040;-72
2022/08/30 22:12:38;;;;;;;5.53;4.30;;;;;;;;;;10402676;28;20049;-72
2022/08/30 22:17:38;;;;;;;5.82;4.57;;;;;;;;;;10401712;28;20156;-72
2022/08/30 22:22:38;;;;;;;5.97;4.50;;;;;;;;;;10407731;28;20808;-72
2022/08/30 22:27:39;;;;;;;5.97;5.35;;;;;;;;;;10426022;28;20303;-72
2022/08/30 22:32:39;;;;;;;7.13;5.10;;;;;;;;;;10418848;28;20111;-71
2022/08/30 22:37:40;;;;;;;6.10;4.93;;;;;;;;;;10413544;28;20037;-72
2022/08/30 22:42:40;;;;;;;7.23;5.53;;;;;;;;;;10411261;28;20132;-68
2022/08/30 22:47:40;;;;;;;6.03;5.43;;;;;;;;;;10412663;28;20372;-71
2022/08/30 22:52:41;;;;;;;6.10;5.40;;;;;;;;;;10399834;28;20288;-71
2022/08/30 22:57:41;;;;;;;6.72;5.13;;;;;;;;;;10407233;28;20534;-70
2022/08/30 23:02:43;;;;;;;6.60;5.35;;;;;;;;;;10394040;28;20469;-72
2022/08/30 23:07:43;;;;;;;7.95;5.18;;;;;;;;;;10407697;28;20507;-73
2022/08/30 23:12:44;;;;;;;8.37;5.93;;;;;;;;;;10410426;28;20025;-71
2022/08/30 23:17:44;;;;;;;5.70;5.03;;;;;;;;;;10425706;28;20052;-72
2022/08/30 23:22:44;;;;;;;5.53;4.93;;;;;;;;;;10420070;28;20567;-72
